Time;durP1;ratioP1;P1;durP2;ratioP2;P2;SDS_P1;SDS_P2;PMS_P1;PMS_P2;Temp;Humidity;BMP_temperature;BMP_pressure;BME280_temperature;BME280_humidity;BME280_pressure;Samples;Min_cycle;Max_cycle;Signal;HPM_P1;HPM_P2
2023/06/05 00:00:50;;;;;;;3.80;2.40;;;16.70;99.90;;;;;;5095173;28;20476;-80
2023/06/05 00:03:17;;;;;;;4.03;2.20;;;16.70;99.90;;;;;;5094589;28;20493;-80
2023/06/05 00:05:46;;;;;;;8.63;3.13;;;16.60;99.90;;;;;;5094763;28;21027;-81
2023/06/05 00:08:12;;;;;;;5.63;2.57;;;16.60;99.90;;;;;;5095777;28;20452;-80
2023/06/05 00:10:39;;;;;;;4.07;2.60;;;16.60;1.00;;;;;;5095059;28;20474;-81
2023/06/05 00:13:06;;;;;;;7.20;2.73;;;16.50;1.00;;;;;;5093830;28;20474;-80
2023/06/05 00:15:35;;;;;;;2.93;1.93;;;16.50;1.00;;;;;;5094714;28;20549;-80
2023/06/05 00:18:02;;;;;;;7.23;2.47;;;16.40;1.00;;;;;;5095112;28;20450;-80
2023/06/05 00:20:29;;;;;;;6.27;2.47;;;16.40;1.00;;;;;;5094005;28;20494;-80
2023/06/05 00:22:57;;;;;;;7.07;2.77;;;16.30;1.00;;;;;;5094537;28;20936;-81
2023/06/05 00:25:25;;;;;;;7.57;2.40;;;16.30;1.00;;;;;;5094572;28;20458;-80
2023/06/05 00:27:52;;;;;;;5.43;3.07;;;16.20;84.60;;;;;;5094197;28;20448;-80
2023/06/05 00:30:18;;;;;;;4.13;2.63;;;16.20;1.00;;;;;;5093897;28;20548;-80
2023/06/05 00:32:45;;;;;;;6.63;2.43;;;16.20;1.00;;;;;;5093787;28;20533;-79
2023/06/05 00:35:12;;;;;;;5.10;2.73;;;16.10;99.90;;;;;;5094321;28;20555;-79
2023/06/05 00:37:39;;;;;;;5.20;2.67;;;16.10;55.80;;;;;;5094160;28;20453;-80
2023/06/05 00:40:08;;;;;;;4.53;2.43;;;16.10;99.90;;;;;;5093898;28;20470;-79
2023/06/05 00:42:35;;;;;;;6.83;3.20;;;16.00;1.00;;;;;;5093180;28;20498;-80
2023/06/05 00:45:02;;;;;;;3.83;2.17;;;16.00;99.90;;;;;;5093705;28;20458;-78
2023/06/05 00:47:29;;;;;;;5.03;2.33;;;16.00;99.90;;;;;;5093215;28;20541;-81
2023/06/05 00:49:56;;;;;;;6.13;2.80;;;15.90;99.90;;;;;;5092841;28;20457;-78
2023/06/05 00:52:23;;;;;;;3.30;2.00;;;15.90;1.00;;;;;;5093559;28;20430;-80
2023/06/05 00:54:50;;;;;;;3.77;2.20;;;15.90;1.00;;;;;;5094411;28;20455;-78
2023/06/05 00:57:18;;;;;;;4.10;2.77;;;15.90;1.00;;;;;;5093549;28;20450;-79
2023/06/05 00:59:45;;;;;;;7.90;2.50;;;15.80;1.00;;;;;;5093713;28;20466;-80
2023/06/05 01:02:13;;;;;;;4.50;2.47;;;15.80;1.00;;;;;;5093909;28;20449;-80
2023/06/05 01:04:43;;;;;;;3.50;2.20;;;15.80;99.90;;;;;;5093689;28;20825;-80
2023/06/05 01:07:10;;;;;;;4.67;2.10;;;15.70;1.00;;;;;;5093913;28;20552;-80
2023/06/05 01:09:37;;;;;;;6.43;2.47;;;15.60;1.00;;;;;;5094097;28;20446;-78
2023/06/05 01:12:11;;;;;;;3.47;2.07;;;15.60;1.00;;;;;;5093956;28;20453;-81
2023/06/05 01:14:45;;;;;;;6.30;2.40;;;15.50;1.00;;;;;;5093643;28;20450;-78
2023/06/05 01:17:14;;;;;;;4.13;2.60;;;15.50;10.80;;;;;;5098388;28;20455;-80
2023/06/05 01:19:43;;;;;;;6.03;2.00;;;15.50;96.80;;;;;;5096201;28;20532;-79
2023/06/05 01:22:09;;;;;;;5.93;2.90;;;15.40;1.00;;;;;;5097208;28;20540;-79
2023/06/05 01:24:40;;;;;;;4.90;2.90;;;15.40;99.90;;;;;;5097121;28;20831;-80
2023/06/05 01:27:15;;;;;;;6.13;2.57;;;15.30;99.90;;;;;;5097925;28;20957;-79
2023/06/05 01:29:52;;;;;;;3.20;2.23;;;15.30;99.90;;;;;;5097418;28;20457;-78
2023/06/05 01:32:25;;;;;;;4.60;2.87;;;15.30;99.90;;;;;;5096733;28;20498;-79
2023/06/05 01:34:54;;;;;;;4.60;2.63;;;15.30;99.90;;;;;;5097892;28;20440;-79
2023/06/05 01:37:24;;;;;;;5.23;2.63;;;15.30;99.90;;;;;;5097892;28;20454;-79
2023/06/05 01:39:55;;;;;;;2.83;1.83;;;15.30;99.90;;;;;;5097492;28;20446;-79
2023/06/05 01:42:24;;;;;;;4.53;2.30;;;15.20;99.90;;;;;;5096460;28;20465;-79
2023/06/05 01:44:51;;;;;;;7.43;2.70;;;15.20;99.90;;;;;;5097895;28;20445;-78
2023/06/05 01:47:18;;;;;;;5.07;2.50;;;15.10;1.00;;;;;;5097466;28;20453;-79
2023/06/05 01:49:45;;;;;;;3.50;2.60;;;15.10;99.90;;;;;;5098250;28;20452;-79
2023/06/05 01:52:12;;;;;;;3.97;2.23;;;15.10;29.90;;;;;;5097863;28;20485;-79
2023/06/05 01:54:39;;;;;;;4.40;2.90;;;15.00;4.40;;;;;;5096652;28;20450;-78
2023/06/05 01:57:07;;;;;;;4.07;2.73;;;14.90;1.00;;;;;;5097884;28;20458;-79
2023/06/05 01:59:34;;;;;;;4.13;3.53;;;14.90;1.00;;;;;;5097275;28;20499;-81
2023/06/05 02:02:02;;;;;;;3.63;2.60;;;14.90;99.90;;;;;;5096956;28;20473;-79
2023/06/05 02:04:29;;;;;;;4.03;2.10;;;14.90;99.90;;;;;;5095908;28;20496;-80
2023/06/05 02:07:02;;;;;;;5.73;2.47;;;14.90;1.00;;;;;;5096910;28;20463;-79
2023/06/05 02:09:32;;;;;;;3.97;2.60;;;14.80;29.70;;;;;;5096532;28;20927;-79
2023/06/05 02:12:03;;;;;;;4.27;2.60;;;14.80;1.00;;;;;;5096010;28;20466;-79
2023/06/05 02:14:35;;;;;;;4.60;2.63;;;14.80;99.90;;;;;;5095575;28;20958;-79
2023/06/05 02:17:03;;;;;;;5.50;2.90;;;14.70;43.40;;;;;;5096657;28;20482;-79
2023/06/05 02:19:30;;;;;;;5.07;3.67;;;14.70;99.90;;;;;;5095224;28;20618;-79
2023/06/05 02:21:56;;;;;;;3.50;2.70;;;14.60;99.90;;;;;;5095674;28;20566;-80
2023/06/05 02:24:24;;;;;;;4.90;3.23;;;14.60;99.90;;;;;;5095723;28;20854;-79
2023/06/05 02:26:51;;;;;;;4.60;2.73;;;14.60;1.00;;;;;;5094620;28;20503;-79
2023/06/05 02:29:18;;;;;;;6.73;2.77;;;14.50;1.00;;;;;;5096314;28;20453;-79
2023/06/05 02:31:46;;;;;;;5.20;2.50;;;14.50;29.30;;;;;;5096328;28;20838;-80
2023/06/05 02:34:13;;;;;;;5.23;2.50;;;14.50;99.90;;;;;;5095455;28;20464;-80
2023/06/05 02:36:40;;;;;;;7.00;3.17;;;14.40;73.60;;;;;;5095761;28;20452;-79
2023/06/05 02:39:07;;;;;;;4.93;2.77;;;14.40;26.60;;;;;;5096391;28;20467;-80
2023/06/05 02:41:34;;;;;;;5.00;3.03;;;14.40;1.00;;;;;;5095370;28;20502;-79
2023/06/05 02:44:01;;;;;;;4.23;2.80;;;14.40;1.00;;;;;;5095055;28;20546;-79
2023/06/05 02:46:28;;;;;;;3.50;3.20;;;14.40;1.00;;;;;;5096198;28;20465;-79
2023/06/05 02:48:56;;;;;;;4.90;3.47;;;14.30;1.00;;;;;;5096261;28;20445;-82
2023/06/05 02:51:23;;;;;;;3.60;2.53;;;14.30;99.90;;;;;;5096413;28;20485;-80
2023/06/05 02:53:49;;;;;;;9.87;3.53;;;14.30;81.70;;;;;;5095261;28;20438;-79
2023/06/05 02:56:16;;;;;;;4.70;2.67;;;14.20;1.00;;;;;;5095174;28;20452;-80
2023/06/05 02:58:45;;;;;;;4.63;2.67;;;14.20;99.90;;;;;;5095612;28;20459;-80
2023/06/05 03:01:12;;;;;;;4.60;3.17;;;14.10;99.90;;;;;;5095741;28;20970;-80
2023/06/05 03:03:39;;;;;;;4.80;2.80;;;14.10;99.90;;;;;;5094671;28;20496;-79
2023/06/05 03:06:07;;;;;;;4.87;3.07;;;14.10;1.00;;;;;;5095163;28;20464;-80
2023/06/05 03:08:35;;;;;;;7.07;3.23;;;14.00;1.00;;;;;;5095607;28;20454;-80
2023/06/05 03:11:03;;;;;;;6.70;3.90;;;14.00;1.00;;;;;;5096722;28;20477;-79
2023/06/05 03:13:30;;;;;;;5.77;3.30;;;14.00;1.00;;;;;;5100401;28;20521;-81
2023/06/05 03:15:58;;;;;;;5.83;2.97;;;13.90;1.00;;;;;;5102509;28;20526;-79
2023/06/05 03:18:25;;;;;;;7.93;3.60;;;13.90;99.90;;;;;;5103635;28;20697;-80
2023/06/05 03:20:54;;;;;;;7.67;3.47;;;13.90;99.90;;;;;;5095606;28;20466;-82
2023/06/05 03:23:23;;;;;;;3.33;2.63;;;13.80;99.90;;;;;;5097065;28;20557;-83
2023/06/05 03:25:50;;;;;;;5.33;3.20;;;13.80;99.90;;;;;;5098324;28;20448;-82
2023/06/05 03:28:17;;;;;;;5.77;3.10;;;13.80;99.90;;;;;;5097693;28;20454;-82
2023/06/05 03:30:44;;;;;;;4.90;3.50;;;13.80;1.00;;;;;;5097647;28;20473;-83
2023/06/05 03:33:10;;;;;;;5.90;3.27;;;13.80;1.00;;;;;;5097075;28;20440;-83
2023/06/05 03:35:37;;;;;;;5.43;3.00;;;13.70;1.00;;;;;;5097517;28;20454;-82
2023/06/05 03:38:04;;;;;;;7.17;3.83;;;13.70;99.90;;;;;;5097674;28;20449;-82
2023/06/05 03:40:32;;;;;;;4.77;2.93;;;13.70;1.00;;;;;;5097577;28;20470;-83
2023/06/05 03:42:59;;;;;;;6.10;3.47;;;13.70;1.00;;;;;;5096504;28;20452;-83
2023/06/05 03:45:27;;;;;;;5.33;3.80;;;13.70;97.40;;;;;;5097048;28;20448;-81
2023/06/05 03:47:54;;;;;;;3.80;3.13;;;13.70;99.90;;;;;;5097487;28;20452;-82
2023/06/05 03:50:21;;;;;;;5.47;3.33;;;13.60;99.90;;;;;;5096558;28;20570;-83
2023/06/05 03:52:52;;;;;;;5.13;3.40;;;13.60;99.90;;;;;;5097134;28;20453;-81
2023/06/05 03:55:19;;;;;;;5.80;3.53;;;13.60;99.90;;;;;;5097372;28;20527;-83
2023/06/05 03:57:47;;;;;;;5.90;3.77;;;13.60;99.90;;;;;;5097001;28;20450;-81
2023/06/05 04:00:15;;;;;;;4.30;3.90;;;13.60;58.70;;;;;;5097454;28;20984;-80
2023/06/05 04:02:42;;;;;;;6.03;3.63;;;13.60;1.00;;;;;;5096258;28;20450;-82
2023/06/05 04:05:11;;;;;;;4.53;3.63;;;13.60;1.00;;;;;;5096770;28;20576;-84
2023/06/05 04:07:38;;;;;;;5.93;3.43;;;13.60;1.00;;;;;;5097093;28;20468;-81
2023/06/05 04:10:06;;;;;;;4.70;3.53;;;13.60;1.00;;;;;;5096154;28;20556;-82
2023/06/05 04:12:32;;;;;;;7.03;4.20;;;13.60;1.00;;;;;;5095737;28;20459;-81
2023/06/05 04:15:00;;;;;;;6.40;4.63;;;13.60;1.00;;;;;;5096435;28;20452;-82
2023/06/05 04:17:27;;;;;;;7.33;4.20;;;13.60;99.90;;;;;;5096315;28;20442;-83
2023/06/05 04:19:54;;;;;;;6.53;4.27;;;13.60;49.50;;;;;;5094622;28;21040;-83
2023/06/05 04:22:21;;;;;;;11.80;4.43;;;13.60;99.90;;;;;;5096730;28;21130;-84
2023/06/05 04:24:48;;;;;;;5.60;4.00;;;13.70;56.40;;;;;;5095390;28;21015;-82
2023/06/05 04:27:16;;;;;;;4.63;4.00;;;13.70;99.90;;;;;;5096202;28;20448;-81
2023/06/05 04:29:44;;;;;;;8.03;3.80;;;13.70;99.90;;;;;;5097089;28;21145;-81
2023/06/05 04:32:12;;;;;;;5.17;3.97;;;13.70;1.00;;;;;;5095904;28;20540;-82
2023/06/05 04:34:40;;;;;;;5.03;4.03;;;13.60;1.00;;;;;;5096066;28;20567;-79
2023/06/05 04:37:06;;;;;;;7.17;4.23;;;13.70;99.90;;;;;;5094374;28;20453;-82
2023/06/05 04:39:33;;;;;;;7.77;4.90;;;13.70;1.00;;;;;;5094556;28;20998;-81
2023/06/05 04:42:00;;;;;;;6.50;4.30;;;13.70;1.00;;;;;;5094654;28;20482;-83
2023/06/05 04:44:27;;;;;;;7.07;4.30;;;13.70;99.90;;;;;;5094347;28;21078;-82
2023/06/05 04:46:54;;;;;;;6.37;4.40;;;13.70;99.90;;;;;;5094245;28;20530;-81
2023/06/05 04:49:24;;;;;;;10.13;5.07;;;13.80;1.00;;;;;;5094662;28;20549;-81
2023/06/05 04:51:53;;;;;;;5.13;4.37;;;13.80;1.00;;;;;;5098795;28;20493;-80
2023/06/05 04:54:19;;;;;;;7.17;4.70;;;13.80;1.00;;;;;;5098327;28;20838;-81
2023/06/05 04:56:49;;;;;;;7.37;3.73;;;13.90;1.00;;;;;;5098298;28;20465;-81
2023/06/05 04:59:16;;;;;;;7.53;4.60;;;13.90;1.00;;;;;;5098765;28;20455;-81
2023/06/05 05:01:43;;;;;;;8.43;4.80;;;13.90;99.90;;;;;;5097806;28;20567;-82
2023/06/05 05:04:11;;;;;;;12.07;5.03;;;14.00;1.00;;;;;;5097226;28;20524;-82
2023/06/05 05:06:41;;;;;;;6.40;4.47;;;14.10;99.90;;;;;;5098737;28;20454;-82
2023/06/05 05:09:08;;;;;;;6.20;5.23;;;14.10;1.00;;;;;;5099722;28;20558;-82
2023/06/05 05:11:35;;;;;;;7.67;5.40;;;14.10;48.30;;;;;;5099375;28;20474;-82
2023/06/05 05:14:02;;;;;;;8.73;5.23;;;14.20;99.90;;;;;;5098382;28;20463;-81
2023/06/05 05:16:29;;;;;;;10.93;5.20;;;14.20;1.00;;;;;;5098182;28;20483;-80
2023/06/05 05:18:56;;;;;;;6.40;4.70;;;14.20;1.00;;;;;;5097065;28;20935;-81
2023/06/05 05:21:23;;;;;;;8.90;4.80;;;14.30;1.00;;;;;;5094425;28;20839;-81
2023/06/05 05:23:51;;;;;;;6.77;5.03;;;14.30;98.60;;;;;;5096190;28;20489;-81
2023/06/05 05:26:18;;;;;;;6.67;4.30;;;14.40;1.00;;;;;;5097138;28;20452;-80
2023/06/05 05:28:45;;;;;;;6.67;4.57;;;14.40;1.00;;;;;;5097412;28;20875;-81
2023/06/05 05:31:12;;;;;;;7.73;4.80;;;14.40;99.90;;;;;;5097258;28;20477;-81
2023/06/05 05:33:38;;;;;;;8.30;5.30;;;14.50;99.90;;;;;;5096569;28;20460;-79
2023/06/05 05:36:05;;;;;;;12.63;5.13;;;14.50;99.90;;;;;;5097561;28;20825;-81
2023/06/05 05:38:32;;;;;;;8.23;5.67;;;14.60;31.40;;;;;;5096939;28;20457;-81
2023/06/05 05:41:00;;;;;;;8.13;5.13;;;14.70;99.90;;;;;;5096761;28;21021;-81
2023/06/05 05:43:27;;;;;;;6.33;5.07;;;14.70;99.90;;;;;;5096132;28;20460;-80
2023/06/05 05:45:54;;;;;;;9.80;5.20;;;14.80;1.00;;;;;;5096370;28;20449;-81
2023/06/05 05:48:22;;;;;;;6.17;4.93;;;14.90;99.90;;;;;;5097113;28;20453;-81
2023/06/05 05:50:49;;;;;;;6.67;4.80;;;14.80;1.00;;;;;;5102925;28;20493;-82
2023/06/05 05:53:16;;;;;;;8.83;5.10;;;14.80;31.60;;;;;;5105935;28;20477;-81
2023/06/05 05:55:43;;;;;;;7.47;5.10;;;14.90;11.10;;;;;;5107315;28;20456;-84
2023/06/05 05:58:12;;;;;;;6.97;4.87;;;15.00;1.00;;;;;;5108428;28;20493;-81
2023/06/05 06:00:38;;;;;;;6.00;4.27;;;15.00;99.90;;;;;;5106253;28;20481;-83
2023/06/05 06:03:06;;;;;;;6.10;4.60;;;15.10;82.10;;;;;;5105332;28;20481;-82
2023/06/05 06:05:33;;;;;;;5.80;4.90;;;15.20;1.00;;;;;;5104629;28;20493;-82
2023/06/05 06:08:00;;;;;;;5.60;4.70;;;15.20;1.00;;;;;;5108023;28;20480;-83
2023/06/05 06:10:27;;;;;;;5.50;4.37;;;15.30;99.90;;;;;;5108196;28;20499;-81
2023/06/05 06:12:54;;;;;;;4.90;4.20;;;15.40;1.00;;;;;;5109812;28;20450;-82
2023/06/05 06:15:22;;;;;;;7.00;4.50;;;15.40;99.90;;;;;;5108748;28;20482;-83
2023/06/05 06:17:49;;;;;;;6.00;4.70;;;15.60;99.90;;;;;;5110378;28;20483;-82
2023/06/05 06:20:16;;;;;;;5.70;4.57;;;15.60;99.90;;;;;;5107201;28;20517;-81
2023/06/05 06:22:43;;;;;;;5.90;4.30;;;15.50;99.90;;;;;;5105153;28;20521;-82
2023/06/05 06:25:14;;;;;;;7.80;5.03;;;15.70;55.20;;;;;;5103316;28;20553;-81
2023/06/05 06:27:41;;;;;;;8.00;4.70;;;15.80;1.00;;;;;;5103056;28;20456;-79
2023/06/05 06:30:10;;;;;;;7.93;4.47;;;15.90;1.00;;;;;;5103048;28;20493;-81
2023/06/05 06:32:38;;;;;;;8.23;6.20;;;15.90;96.10;;;;;;5103292;28;20797;-81
2023/06/05 06:35:06;;;;;;;6.07;5.10;;;15.80;99.90;;;;;;5102329;28;20572;-81
2023/06/05 06:37:33;;;;;;;9.97;5.20;;;15.80;1.00;;;;;;5102094;28;20452;-81
2023/06/05 06:40:00;;;;;;;8.20;4.90;;;15.90;1.00;;;;;;5100526;28;20560;-81
2023/06/05 06:42:27;;;;;;;6.33;5.20;;;15.90;99.90;;;;;;5100241;28;20987;-81
2023/06/05 06:44:55;;;;;;;8.47;4.77;;;16.00;99.90;;;;;;5098956;28;20489;-80
2023/06/05 06:47:22;;;;;;;7.00;4.30;;;16.10;99.90;;;;;;5098167;28;20554;-80
2023/06/05 06:49:51;;;;;;;5.27;4.13;;;16.30;1.00;;;;;;5097326;28;20446;-80
2023/06/05 06:52:18;;;;;;;6.73;4.53;;;16.40;76.90;;;;;;5097406;28;20450;-80
2023/06/05 06:54:45;;;;;;;9.80;4.97;;;16.40;1.00;;;;;;5097299;28;20505;-80
2023/06/05 06:57:12;;;;;;;9.70;5.27;;;16.50;93.40;;;;;;5097609;28;20841;-80
2023/06/05 06:59:40;;;;;;;5.70;4.60;;;16.60;99.90;;;;;;5097258;28;20454;-79
2023/06/05 07:02:13;;;;;;;9.07;5.00;;;16.70;1.00;;;;;;5097581;28;20458;-80
2023/06/05 07:04:41;;;;;;;6.97;4.77;;;16.80;54.70;;;;;;5097138;28;20491;-80
2023/06/05 07:07:12;;;;;;;6.47;4.10;;;16.80;53.30;;;;;;5096786;28;20456;-81
2023/06/05 07:09:39;;;;;;;6.97;3.80;;;16.90;1.00;;;;;;5097736;28;20447;-80
2023/06/05 07:12:07;;;;;;;7.87;4.50;;;17.00;21.20;;;;;;5096252;28;20542;-79
2023/06/05 07:14:34;;;;;;;11.57;5.70;;;17.20;1.00;;;;;;5095220;28;20448;-80
2023/06/05 07:17:01;;;;;;;7.70;5.47;;;17.30;1.00;;;;;;5096692;28;20466;-80
2023/06/05 07:19:28;;;;;;;6.67;5.20;;;17.40;1.00;;;;;;5095743;28;20973;-80
2023/06/05 07:21:56;;;;;;;8.87;5.00;;;17.50;1.00;;;;;;5096485;28;20843;-80
2023/06/05 07:24:25;;;;;;;7.50;5.20;;;17.50;1.00;;;;;;5096113;28;20872;-80
2023/06/05 07:26:52;;;;;;;6.73;5.10;;;17.60;99.90;;;;;;5096559;28;20983;-79
2023/06/05 07:29:20;;;;;;;6.37;5.20;;;17.70;99.90;;;;;;5096574;28;20460;-79
2023/06/05 07:31:47;;;;;;;7.20;5.40;;;17.80;99.90;;;;;;5096509;28;20471;-79
2023/06/05 07:34:14;;;;;;;7.40;5.37;;;17.90;99.90;;;;;;5095719;28;20440;-79
2023/06/05 07:36:42;;;;;;;5.97;5.07;;;18.00;99.90;;;;;;5096025;28;20450;-80
2023/06/05 07:39:09;;;;;;;8.23;4.40;;;18.10;99.90;;;;;;5096202;28;20454;-79
2023/06/05 07:41:37;;;;;;;6.00;4.80;;;18.10;99.90;;;;;;5096154;28;20471;-80
2023/06/05 07:44:04;;;;;;;8.73;5.00;;;18.20;99.90;;;;;;5095954;28;20869;-80
2023/06/05 07:46:31;;;;;;;6.07;4.83;;;18.30;99.90;;;;;;5096202;28;20448;-80
2023/06/05 07:48:58;;;;;;;5.80;4.40;;;18.30;99.90;;;;;;5096144;28;20984;-80
2023/06/05 07:51:25;;;;;;;5.60;4.80;;;18.50;99.90;;;;;;5096134;28;20476;-79
2023/06/05 07:53:51;;;;;;;7.80;5.83;;;18.50;99.90;;;;;;5095748;28;20457;-79
2023/06/05 07:56:18;;;;;;;8.50;5.90;;;18.50;99.90;;;;;;5095900;28;20447;-79
2023/06/05 07:58:47;;;;;;;11.23;6.40;;;18.60;99.90;;;;;;5096121;28;20952;-80
2023/06/05 08:01:15;;;;;;;8.87;6.13;;;18.70;99.90;;;;;;5096288;28;20495;-79
2023/06/05 08:03:43;;;;;;;7.50;5.23;;;18.70;97.80;;;;;;5094623;28;20450;-79
2023/06/05 08:06:10;;;;;;;13.13;6.20;;;18.80;69.70;;;;;;5096130;28;20492;-80
2023/06/05 08:08:37;;;;;;;9.50;5.23;;;19.00;90.80;;;;;;5096311;28;20539;-80
2023/06/05 08:11:04;;;;;;;7.80;5.57;;;19.10;40.70;;;;;;5095612;28;20473;-79
2023/06/05 08:13:30;;;;;;;7.00;5.53;;;19.20;1.00;;;;;;5094540;28;20457;-80
2023/06/05 08:15:59;;;;;;;7.70;5.63;;;19.20;1.00;;;;;;5095889;28;20536;-80
2023/06/05 08:18:26;;;;;;;7.43;5.43;;;19.40;1.00;;;;;;5095236;28;20475;-79
2023/06/05 08:20:52;;;;;;;10.60;6.10;;;19.50;1.00;;;;;;5095428;28;20485;-79
2023/06/05 08:23:19;;;;;;;7.93;6.07;;;19.70;1.00;;;;;;5095680;28;20504;-80
2023/06/05 08:25:48;;;;;;;6.53;5.60;;;19.70;1.00;;;;;;5094792;28;20519;-81
2023/06/05 08:28:15;;;;;;;7.53;5.03;;;19.90;1.00;;;;;;5096582;28;20954;-79
2023/06/05 08:30:42;;;;;;;6.77;4.90;;;20.10;1.00;;;;;;5094917;28;20499;-80
2023/06/05 08:33:10;;;;;;;6.33;5.13;;;20.30;1.00;;;;;;5094415;28;20455;-79
2023/06/05 08:35:38;;;;;;;12.07;5.10;;;20.50;1.00;;;;;;5095543;28;20911;-81
2023/06/05 08:38:05;;;;;;;7.53;5.10;;;20.80;1.00;;;;;;5095179;28;20945;-80
2023/06/05 08:40:33;;;;;;;7.90;5.17;;;21.10;1.00;;;;;;5095041;28;20751;-81
2023/06/05 08:43:01;;;;;;;7.30;5.13;;;21.30;1.00;;;;;;5094934;28;20450;-80
2023/06/05 08:45:28;;;;;;;8.77;6.20;;;21.60;1.00;;;;;;5094622;28;20482;-80
2023/06/05 08:47:57;;;;;;;8.40;6.10;;;21.70;1.00;;;;;;5094953;28;20454;-80
2023/06/05 08:50:27;;;;;;;7.37;5.50;;;21.80;1.00;;;;;;5094129;28;21009;-81
2023/06/05 08:52:56;;;;;;;7.93;5.13;;;22.00;1.00;;;;;;5094816;28;20453;-80
2023/06/05 08:55:23;;;;;;;11.63;5.80;;;22.10;1.00;;;;;;5095452;28;20444;-81
2023/06/05 08:57:50;;;;;;;7.93;4.80;;;22.20;1.00;;;;;;5095345;28;20924;-80
2023/06/05 09:00:17;;;;;;;13.93;5.27;;;22.30;1.00;;;;;;5095537;28;20537;-81
2023/06/05 09:02:46;;;;;;;8.10;5.63;;;22.40;1.00;;;;;;5094788;28;20445;-81
2023/06/05 09:05:13;;;;;;;5.83;4.67;;;22.60;1.00;;;;;;5095300;28;20489;-82
2023/06/05 09:07:41;;;;;;;6.43;5.13;;;22.80;1.00;;;;;;5096306;28;20838;-79
2023/06/05 09:10:22;;;;;;;5.57;3.77;;;22.90;99.90;;;;;;5095662;28;20539;-81
2023/06/05 09:12:56;;;;;;;6.50;4.17;;;23.10;99.90;;;;;;5095243;28;20435;-81
2023/06/05 09:15:24;;;;;;;6.43;4.10;;;23.20;99.90;;;;;;5094969;28;20446;-82
2023/06/05 09:18:05;;;;;;;6.50;3.60;;;23.20;99.90;;;;;;5094856;28;20465;-82
2023/06/05 09:20:34;;;;;;;6.50;4.50;;;23.40;99.90;;;;;;5093658;28;20481;-81
2023/06/05 09:23:03;;;;;;;4.83;3.57;;;23.60;99.90;;;;;;5094650;28;20452;-82
2023/06/05 09:25:47;;;;;;;6.53;3.37;;;23.70;99.90;;;;;;5095283;28;20497;-82
2023/06/05 09:28:14;;;;;;;10.87;4.40;;;23.90;99.90;;;;;;5095094;28;20442;-80
2023/06/05 09:30:55;;;;;;;6.80;4.03;;;24.10;99.90;;;;;;5094378;28;20474;-81
2023/06/05 09:33:23;;;;;;;9.93;4.53;;;24.10;99.90;;;;;;5093352;28;20457;-81
2023/06/05 09:36:03;;;;;;;6.40;4.90;;;24.10;99.90;;;;;;5094579;28;20453;-81
2023/06/05 09:38:32;;;;;;;7.73;4.50;;;24.10;99.90;;;;;;5098570;28;20934;-82
2023/06/05 09:41:06;;;;;;;6.13;3.97;;;24.20;99.90;;;;;;5098266;28;20476;-82
2023/06/05 09:43:33;;;;;;;5.93;4.20;;;24.50;99.90;;;;;;5097455;28;20457;-81
2023/06/05 09:46:06;;;;;;;5.00;4.10;;;24.70;99.90;;;;;;5097414;28;20493;-82
2023/06/05 09:48:33;;;;;;;5.87;4.40;;;24.90;99.90;;;;;;5098626;28;20453;-81
2023/06/05 09:51:09;;;;;;;8.20;5.17;;;25.10;99.90;;;;;;5097580;28;20489;-82
2023/06/05 09:53:42;;;;;;;7.50;4.10;;;25.40;99.90;;;;;;5097631;28;20469;-80
2023/06/05 09:56:12;;;;;;;8.00;3.67;;;25.50;99.90;;;;;;5097651;28;20522;-81
2023/06/05 09:58:41;;;;;;;6.10;4.23;;;25.60;99.90;;;;;;5097338;28;20446;-82
2023/06/05 10:01:09;;;;;;;8.00;3.80;;;25.80;99.90;;;;;;5097825;28;20472;-81
2023/06/05 10:03:41;;;;;;;7.50;4.20;;;25.90;99.90;;;;;;5096955;28;20450;-81
2023/06/05 10:06:08;;;;;;;8.90;5.60;;;26.00;99.90;;;;;;5098268;28;20489;-81
2023/06/05 10:08:37;;;;;;;7.20;3.40;;;26.00;99.90;;;;;;5097840;28;20464;-82
2023/06/05 10:11:05;;;;;;;5.13;4.50;;;26.00;99.90;;;;;;5097516;28;20478;-82
2023/06/05 10:13:33;;;;;;;7.43;4.10;;;26.10;99.90;;;;;;5096266;28;20454;-80
2023/06/05 10:16:00;;;;;;;4.63;3.63;;;26.20;99.90;;;;;;5097296;28;20438;-82
2023/06/05 10:18:27;;;;;;;4.13;3.50;;;26.30;99.90;;;;;;5097566;28;20458;-81
2023/06/05 10:20:55;;;;;;;10.00;3.80;;;26.40;99.90;;;;;;5095780;28;20934;-80
2023/06/05 10:23:23;;;;;;;6.90;4.47;;;26.50;99.90;;;;;;5096720;28;20812;-82
2023/06/05 10:25:52;;;;;;;4.83;3.27;;;26.80;99.90;;;;;;5096740;28;20496;-81
2023/06/05 10:28:31;;;;;;;4.90;3.67;;;27.00;99.90;;;;;;5096803;28;20446;-80
2023/06/05 10:31:28;;;;;;;5.73;3.07;;;27.30;99.90;;;;;;5097099;28;20469;-80
2023/06/05 10:34:24;;;;;;;5.90;3.30;;;27.40;99.90;;;;;;5096327;28;20492;-81
2023/06/05 10:37:21;;;;;;;8.27;3.47;;;27.50;99.90;;;;;;5096519;28;20436;-80
2023/06/05 10:39:49;;;;;;;5.03;3.43;;;27.80;99.90;;;;;;5096939;28;20443;-81
2023/06/05 10:42:25;;;;;;;4.47;3.03;;;27.90;99.90;;;;;;5096731;28;20874;-79
2023/06/05 10:44:52;;;;;;;5.00;3.20;;;28.00;99.90;;;;;;5097086;28;20516;-81
2023/06/05 10:47:51;;;;;;;7.83;3.53;;;28.20;99.90;;;;;;5095661;28;20493;-81
2023/06/05 10:50:26;;;;;;;4.80;3.03;;;28.30;99.90;;;;;;5096744;28;20473;-79
2023/06/05 10:52:55;;;;;;;4.60;3.37;;;28.60;99.90;;;;;;5095740;28;20461;-81
2023/06/05 10:55:22;;;;;;;4.57;3.03;;;28.80;99.90;;;;;;5096067;28;20446;-82
2023/06/05 10:58:15;;;;;;;6.10;4.07;;;28.90;99.90;;;;;;5096099;28;20458;-82
2023/06/05 11:01:14;;;;;;;7.30;4.13;;;28.80;99.90;;;;;;5096140;28;20470;-81
2023/06/05 11:03:55;;;;;;;5.00;2.80;;;29.00;99.90;;;;;;5094999;28;20986;-82
2023/06/05 11:06:23;;;;;;;5.33;3.03;;;29.20;99.90;;;;;;5097274;28;20561;-81
2023/06/05 11:09:13;;;;;;;5.10;3.17;;;29.50;99.90;;;;;;5098941;28;20453;-81
2023/06/05 11:12:02;;;;;;;3.47;3.00;;;29.70;99.90;;;;;;5097321;28;20473;-81
2023/06/05 11:14:46;;;;;;;4.10;3.03;;;30.00;99.90;;;;;;5095677;28;20446;-81
2023/06/05 11:17:29;;;;;;;5.20;3.17;;;30.30;99.90;;;;;;5096766;28;20441;-81
2023/06/05 11:19:57;;;;;;;5.40;3.40;;;30.60;99.90;;;;;;5095454;28;20444;-82
2023/06/05 11:22:25;;;;;;;3.97;2.93;;;30.70;99.90;;;;;;5095312;28;20441;-81
2023/06/05 11:25:32;;;;;;;3.87;2.63;;;31.00;99.90;;;;;;5096477;28;20453;-81
2023/06/05 11:28:01;;;;;;;6.90;2.60;;;31.30;99.90;;;;;;5096078;28;20966;-81
2023/06/05 11:30:32;;;;;;;3.70;2.83;;;31.60;99.90;;;;;;5095779;28;20578;-81
2023/06/05 11:33:07;;;;;;;4.87;3.00;;;31.70;99.90;;;;;;5094353;28;20491;-82
2023/06/05 11:35:36;;;;;;;7.07;3.80;;;31.80;99.90;;;;;;5096033;28;20928;-82
2023/06/05 11:38:11;;;;;;;4.20;2.87;;;32.00;99.90;;;;;;5096472;28;20454;-82
2023/06/05 11:40:38;;;;;;;5.00;2.73;;;32.10;99.90;;;;;;5095869;28;20526;-82
2023/06/05 11:43:05;;;;;;;4.73;2.30;;;32.30;99.90;;;;;;5092922;28;20489;-81
2023/06/05 11:45:36;;;;;;;4.20;2.40;;;32.40;99.90;;;;;;5095772;28;20493;-81
2023/06/05 11:48:07;;;;;;;3.60;2.60;;;32.60;99.90;;;;;;5095684;28;20457;-81
2023/06/05 11:50:34;;;;;;;4.80;2.97;;;32.60;99.90;;;;;;5095344;28;20513;-82
2023/06/05 11:53:07;;;;;;;4.07;2.53;;;32.80;99.90;;;;;;5095019;28;20486;-82
2023/06/05 11:55:43;;;;;;;3.60;2.20;;;33.20;99.90;;;;;;5095677;28;20450;-82
2023/06/05 11:58:11;;;;;;;3.13;2.30;;;33.60;99.90;;;;;;5095211;28;20438;-81
2023/06/05 12:00:39;;;;;;;3.90;2.70;;;33.90;99.90;;;;;;5095178;28;20500;-82
2023/06/05 12:03:06;;;;;;;3.97;2.47;;;34.20;99.90;;;;;;5094770;28;20476;-81
2023/06/05 12:05:33;;;;;;;3.60;2.63;;;34.70;99.90;;;;;;5095158;28;20557;-82
2023/06/05 12:08:24;;;;;;;2.93;2.40;;;34.80;99.90;;;;;;5095793;28;20454;-82
2023/06/05 12:10:51;;;;;;;5.03;2.67;;;35.30;99.90;;;;;;5095144;28;20454;-81
2023/06/05 12:13:18;;;;;;;6.67;2.50;;;35.40;99.90;;;;;;5094321;28;20450;-81
2023/06/05 12:15:58;;;;;;;4.90;2.70;;;35.60;99.90;;;;;;5094947;28;20445;-82
2023/06/05 12:18:32;;;;;;;6.00;3.87;;;35.60;99.90;;;;;;5095185;28;20519;-81
2023/06/05 12:20:59;;;;;;;5.57;3.60;;;35.80;99.90;;;;;;5095412;28;20470;-81
2023/06/05 12:23:26;;;;;;;5.10;2.60;;;36.20;99.90;;;;;;5094297;28;20482;-81
2023/06/05 12:25:59;;;;;;;4.20;2.77;;;36.30;99.90;;;;;;5095034;28;20490;-82
2023/06/05 12:28:27;;;;;;;5.03;3.03;;;36.50;99.90;;;;;;5095157;28;20525;-81
2023/06/05 12:30:54;;;;;;;4.37;2.70;;;36.60;99.90;;;;;;5094583;28;20465;-82
2023/06/05 12:33:24;;;;;;;4.00;2.80;;;36.60;99.90;;;;;;5094225;28;20464;-82
2023/06/05 12:36:04;;;;;;;4.50;2.50;;;36.80;99.90;;;;;;5094780;28;20450;-81
2023/06/05 12:38:30;;;;;;;5.73;2.80;;;37.10;99.90;;;;;;5095142;28;20438;-80
2023/06/05 12:40:58;;;;;;;4.77;2.83;;;37.40;99.90;;;;;;5095052;28;20472;-81
2023/06/05 12:43:25;;;;;;;4.37;2.93;;;37.30;99.90;;;;;;5091987;28;20450;-82
2023/06/05 12:45:52;;;;;;;3.53;2.57;;;37.50;99.90;;;;;;5095410;28;20482;-81
2023/06/05 12:48:20;;;;;;;6.03;2.57;;;37.40;99.90;;;;;;5095285;28;20472;-81
2023/06/05 12:50:49;;;;;;;3.90;2.53;;;37.60;99.90;;;;;;5095158;28;20488;-83
2023/06/05 12:53:16;;;;;;;5.20;3.17;;;37.60;99.90;;;;;;5094248;28;20434;-82
2023/06/05 12:55:42;;;;;;;4.23;2.50;;;37.60;99.90;;;;;;5094780;28;20549;-81
2023/06/05 12:58:09;;;;;;;3.53;2.90;;;37.40;99.90;;;;;;5094299;28;20460;-81
2023/06/05 13:00:36;;;;;;;4.00;2.43;;;37.50;99.90;;;;;;5094251;28;20470;-82